Forum Crazy Orc - Centre de statistiques

Statistiques générales

Total des membres:
923
Total des messages:
95 841
Total des sujets:
3 921
Total des catégories:
4
Membres en ligne:
24
Connexions simultanées:
808 - 21 janvier 2020 à 20:55:59
En ligne aujourd'hui:
45
Total des pages vues:
30 533 695
Moyenne des inscriptions par jour:
0,25
Moyenne des messages par jour:
25,67
Moyenne des sujets par jour:
1,13
Total des sections:
40
Dernier membre:
Gravel
Moyenne d'utilisateurs connectés par jour:
46,88
Ratio hommes/femmes:
7.1:1
Pages vues en moyenne par jour:
5 612,81

Top lanceurs de sujets

nunch
600
ManuDevil
287
GroumpH
246
Morithil
229
Scratchy
132
MAO
110
LeDupontesque
105
jules
99
snake
92
CCCP
84

Temps de connexion cumulé

Mandy
133j 19h 59m
GroumpH
112j 9h 9m
CCCP
85j 1h 49m
Nukeflow
73j 8h 19m
ManuDevil
67j 4h 45m
Felipe
61j 12h 19m
dao
56j 17h 54m
nunch
49j 26m
Rh
42j 23h 32m
Patate
41j 37m

Historique du forum (basé sur l'heure interne du forum)

Résumé annuel Nouveaux sujets Nouveaux messages Nouveaux membres Connexions simultanées Pages vues
* 2022 20 55 10 70 279 962
Janvier 2022 20 55 10 70 279 962
* 2021 129 756 53 338 4 376 522
Décembre 2021 8 37 0 129 661 064
Novembre 2021 13 99 4 153 262 314
Octobre 2021 20 208 15 159 298 103
Septembre 2021 24 171 10 280 285 455
Août 2021 11 33 7 73 231 609
Juillet 2021 6 8 2 81 305 173
Juin 2021 17 31 2 135 311 168
Mai 2021 3 31 4 268 597 777
Avril 2021 10 51 6 287 308 355
Mars 2021 7 24 1 308 444 900
Février 2021 5 29 2 338 223 056
Janvier 2021 5 34 0 322 447 548
* 2020 206 1 716 105 808 4 713 463
Décembre 2020 6 38 2 320 310 487
Novembre 2020 12 97 3 352 464 426
Octobre 2020 21 169 7 346 497 422
Septembre 2020 30 356 15 133 325 183
Août 2020 16 147 7 163 471 897
2020-08-01 0 0 1 125 9 376
2020-08-02 0 0 1 127 10 771
2020-08-03 2 4 0 135 9 364
2020-08-04 0 0 0 163 13 035
2020-08-05 0 5 1 160 20 546
2020-08-06 0 2 0 131 12 711
2020-08-07 0 0 0 119 12 203
2020-08-08 0 0 0 103 12 458
2020-08-09 0 2 0 87 11 220
2020-08-10 0 1 0 81 10 362
2020-08-11 0 1 0 83 14 026
2020-08-12 0 3 0 87 134 172
2020-08-13 0 5 0 103 10 481
2020-08-14 0 3 0 97 13 299
2020-08-15 2 3 0 96 8 890
2020-08-16 3 6 1 82 8 258
2020-08-17 0 11 0 85 9 541
2020-08-18 0 6 0 91 10 678
2020-08-19 0 5 0 84 11 112
2020-08-20 1 15 1 78 11 469
2020-08-21 0 7 0 84 11 326
2020-08-22 0 5 0 83 11 201
2020-08-23 1 3 0 71 10 011
2020-08-24 3 8 0 82 10 392
2020-08-25 0 2 0 95 9 967
2020-08-26 0 5 0 92 10 480
2020-08-27 2 9 0 92 12 374
2020-08-28 1 12 1 95 9 959
2020-08-29 0 9 1 90 9 439
2020-08-30 0 8 0 104 10 776
2020-08-31 1 7 0 137 12 000
Juillet 2020 16 77 2 100 345 760
Juin 2020 17 60 5 127 452 817
2020-06-01 0 1 0 97 7 843
2020-06-02 7 8 0 99 6 624
2020-06-03 0 0 0 116 9 483
2020-06-04 0 0 0 127 10 949
2020-06-05 0 0 0 54 8 472
2020-06-06 0 0 0 60 11 941
2020-06-07 0 3 0 60 62 107
2020-06-08 0 1 1 59 116 791
2020-06-09 0 1 0 67 15 021
2020-06-10 2 6 0 51 11 623
2020-06-11 0 0 0 50 8 819
2020-06-12 0 0 0 54 9 812
2020-06-13 0 0 1 57 9 517
2020-06-14 0 1 0 54 10 890
2020-06-15 2 5 0 50 11 230
2020-06-16 0 3 0 66 11 587
2020-06-17 0 0 1 53 7 877
2020-06-18 0 0 0 53 7 889
2020-06-19 0 0 0 47 8 061
2020-06-20 0 1 0 49 10 663
2020-06-21 0 0 0 49 8 505
2020-06-22 0 2 0 51 8 058
2020-06-23 0 1 0 50 9 272
2020-06-24 1 7 1 59 9 508
2020-06-25 0 4 0 53 9 909
2020-06-26 0 1 0 53 10 161
2020-06-27 0 0 1 58 11 373
2020-06-28 0 0 0 63 8 637
2020-06-29 5 12 0 67 8 575
2020-06-30 0 3 0 56 11 620
Mai 2020 7 22 3 295 321 652
Avril 2020 10 47 1 189 300 030
Mars 2020 24 253 3 199 467 854
Février 2020 18 171 9 323 281 798
2020-02-01 0 6 1 110 22 857
2020-02-02 0 4 0 113 19 748
2020-02-03 3 6 2 225 8 437
2020-02-04 0 4 0 323 5 481
2020-02-05 0 1 1 124 6 151
2020-02-06 0 4 0 123 9 304
2020-02-07 0 5 0 154 11 432
2020-02-08 0 4 0 133 9 152
2020-02-09 0 3 0 131 10 284
2020-02-10 0 2 0 110 5 432
2020-02-11 3 10 0 135 4 471
2020-02-12 0 5 0 126 6 869
2020-02-13 0 5 0 128 11 009
2020-02-14 1 4 0 156 5 546
2020-02-15 0 2 0 171 6 296
2020-02-16 0 5 1 133 5 755
2020-02-17 4 21 1 132 8 743
2020-02-18 0 18 0 138 7 508
2020-02-19 0 2 0 137 7 400
2020-02-20 0 12 0 143 8 914
2020-02-21 1 9 1 154 8 884
2020-02-22 0 15 0 167 11 618
2020-02-23 0 1 0 164 12 863
2020-02-24 5 10 0 167 13 726
2020-02-25 0 1 0 196 13 396
2020-02-26 1 4 0 188 11 554
2020-02-27 0 5 1 132 9 231
2020-02-28 0 3 0 145 10 882
2020-02-29 0 0 1 132 8 855
Janvier 2020 29 279 48 808 474 137
* 2019 246 3 411 313 446 3 308 531
Décembre 2019 18 159 26 446 351 248
Novembre 2019 16 245 33 325 524 135
Octobre 2019 24 272 59 121 189 762
Septembre 2019 25 386 54 141 376 708
Août 2019 22 257 31 122 225 760
Juillet 2019 24 281 62 149 190 301
Juin 2019 11 171 3 112 246 519
Mai 2019 23 311 10 167 218 891
Avril 2019 21 294 9 174 311 459
Mars 2019 22 372 16 142 344 146
Février 2019 18 288 4 110 142 132
Janvier 2019 22 375 6 113 187 470
2019-01-01 1 15 2 48 3 038
2019-01-02 1 15 0 46 2 001
2019-01-03 0 6 0 21 1 368
2019-01-04 1 11 0 45 1 552
2019-01-05 0 6 0 53 3 362
2019-01-06 0 8 0 63 4 705
2019-01-07 0 9 0 55 12 308
2019-01-08 2 13 0 53 18 061
2019-01-09 1 10 1 113 10 965
2019-01-10 1 29 1 113 14 217
2019-01-11 0 13 0 109 30 587
2019-01-12 0 7 0 109 8 140
2019-01-13 1 10 0 107 5 158
2019-01-14 4 31 0 103 4 347
2019-01-15 1 10 0 105 3 882
2019-01-16 1 13 0 111 3 382
2019-01-17 1 18 1 80 2 837
2019-01-18 0 8 0 101 2 592
2019-01-19 0 12 1 113 3 015
2019-01-20 0 16 0 100 2 773
2019-01-21 1 13 0 104 3 262
2019-01-22 0 4 0 103 2 681
2019-01-23 0 18 0 100 2 956
2019-01-24 0 14 0 103 4 754
2019-01-25 1 3 0 104 2 549
2019-01-26 4 22 0 106 3 353
2019-01-27 0 4 0 102 3 126
2019-01-28 0 7 0 108 3 010
2019-01-29 0 8 0 102 5 181
2019-01-30 0 6 0 100 9 811
2019-01-31 1 16 0 89 8 497
* 2018 338 6 176 81 641 2 624 946
Décembre 2018 43 306 8 253 421 582
Novembre 2018 26 467 9 641 383 363
Octobre 2018 34 527 6 321 248 725
Septembre 2018 34 641 10 127 216 306
Août 2018 32 583 16 101 188 648
2018-08-01 0 26 0 98 6 784
2018-08-02 0 29 0 101 6 795
2018-08-03 0 11 0 93 6 370
2018-08-04 5 19 1 90 6 653
2018-08-05 4 23 0 93 6 519
2018-08-06 0 24 0 95 6 142
2018-08-07 2 23 1 94 5 013
2018-08-08 0 18 0 93 6 325
2018-08-09 1 9 0 98 6 608
2018-08-10 1 13 1 101 6 723
2018-08-11 0 17 1 94 6 721
2018-08-12 1 9 2 92 6 116
2018-08-13 2 19 0 93 6 356
2018-08-14 0 5 0 90 6 043
2018-08-15 1 16 0 93 6 200
2018-08-16 1 34 0 89 6 859
2018-08-17 0 25 0 86 5 971
2018-08-18 0 27 1 90 6 101
2018-08-19 4 24 0 94 6 672
2018-08-20 0 10 1 83 6 150
2018-08-21 1 9 2 93 5 405
2018-08-22 1 24 0 90 4 343
2018-08-23 3 23 3 89 5 993
2018-08-24 1 54 3 92 7 389
2018-08-25 0 13 0 84 5 312
2018-08-26 0 3 0 83 5 702
2018-08-27 0 9 0 82 5 196
2018-08-28 2 10 0 84 5 401
2018-08-29 1 8 0 82 4 297
2018-08-30 1 19 0 27 4 663
2018-08-31 0 30 0 22 7 826
Juillet 2018 21 386 3 104 182 475
Juin 2018 31 442 3 110 213 303
Mai 2018 21 422 4 107 174 393
2018-05-01 2 18 0 85 4 793
2018-05-02 0 25 0 84 5 424
2018-05-03 0 9 0 92 5 981
2018-05-04 0 25 0 86 3 613
2018-05-05 0 11 0 103 4 133
2018-05-06 2 6 0 98 5 788
2018-05-07 0 7 0 90 5 220
2018-05-08 2 35 2 96 5 516
2018-05-09 1 10 0 87 4 205
2018-05-10 0 11 0 91 4 954
2018-05-11 0 3 0 97 4 854
2018-05-12 1 15 0 92 4 186
2018-05-13 1 6 0 96 5 766
2018-05-14 1 15 0 90 6 028
2018-05-15 1 18 0 88 6 274
2018-05-16 0 13 0 91 5 693
2018-05-17 0 13 0 89 5 142
2018-05-18 0 14 0 90 4 921
2018-05-19 1 14 0 106 4 998
2018-05-20 5 19 0 107 6 617
2018-05-21 0 10 0 104 5 875
2018-05-22 0 6 0 100 7 031
2018-05-23 0 13 0 100 6 653
2018-05-24 1 5 0 97 6 315
2018-05-25 1 7 0 96 6 038
2018-05-26 0 11 0 103 5 731
2018-05-27 0 7 0 96 5 909
2018-05-28 2 31 0 106 6 887
2018-05-29 0 27 0 101 6 749
2018-05-30 0 10 2 92 6 528
2018-05-31 0 8 0 92 6 571
Avril 2018 25 564 5 104 159 849
Mars 2018 20 634 4 96 152 933
Février 2018 25 631 7 93 121 912
Janvier 2018 26 573 6 94 161 457
* 2017 346 6 100 56 180 1 675 168
Décembre 2017 37 499 6 91 136 063
Novembre 2017 37 675 6 93 169 670
Octobre 2017 15 426 2 93 151 449
Septembre 2017 28 548 5 94 135 543
Août 2017 29 384 6 99 148 097
Juillet 2017 25 490 5 87 176 472
2017-07-01 0 15 0 70 4 062
2017-07-02 0 3 1 65 3 539
2017-07-03 1 23 1 62 3 836
2017-07-04 1 26 0 72 3 952
2017-07-05 1 10 0 61 4 350
2017-07-06 1 29 0 87 4 569
2017-07-07 0 20 1 77 4 031
2017-07-08 1 22 0 69 5 874
2017-07-09 0 19 0 69 7 487
2017-07-10 0 17 0 72 5 879
2017-07-11 1 4 0 67 7 492
2017-07-12 0 5 0 71 6 813
2017-07-13 1 4 0 79 25 553
2017-07-14 0 5 0 87 5 690
2017-07-15 0 5 0 72 4 170
2017-07-16 2 18 0 78 4 326
2017-07-17 5 25 0 73 4 689
2017-07-18 0 17 1 76 4 440
2017-07-19 1 19 0 83 3 965
2017-07-20 0 12 0 76 4 047
2017-07-21 1 19 1 75 5 666
2017-07-22 1 10 0 72 4 430
2017-07-23 2 22 0 77 5 427
2017-07-24 0 21 0 83 6 448
2017-07-25 1 16 0 69 4 956
2017-07-26 3 31 0 84 5 953
2017-07-27 0 21 0 75 5 107
2017-07-28 0 12 0 70 6 063
2017-07-29 0 18 0 72 5 667
2017-07-30 1 9 0 67 4 294
2017-07-31 1 13 0 68 3 697
Juin 2017 33 603 4 89 156 248
Mai 2017 26 470 2 99 181 189
2017-05-01 0 10 0 60 6 651
2017-05-02 0 5 0 93 7 583
2017-05-03 1 12 0 87 7 979
2017-05-04 2 21 0 78 8 358
2017-05-05 1 14 0 71 7 427
2017-05-06 0 21 0 72 7 076
2017-05-07 1 22 0 77 6 140
2017-05-08 0 10 0 72 5 729
2017-05-09 0 14 1 74 7 689
2017-05-10 2 16 0 73 4 488
2017-05-11 0 12 0 70 3 188
2017-05-12 1 38 0 68 5 384
2017-05-13 0 4 0 59 5 267
2017-05-14 3 17 0 72 6 766
2017-05-15 0 12 0 71 5 041
2017-05-16 0 23 0 61 5 057
2017-05-17 2 22 0 99 5 471
2017-05-18 2 31 0 64 6 069
2017-05-19 0 19 0 63 4 606
2017-05-20 0 8 0 72 6 432
2017-05-21 2 11 0 63 5 595
2017-05-22 1 16 0 64 4 783
2017-05-23 0 24 0 64 4 472
2017-05-24 1 8 0 79 4 750
2017-05-25 0 4 0 61 4 617
2017-05-26 0 11 0 63 7 032
2017-05-27 6 19 0 61 5 588
2017-05-28 0 11 0 72 3 450
2017-05-29 0 6 0 69 8 108
2017-05-30 1 19 1 64 5 031
2017-05-31 0 10 0 72 5 362
Avril 2017 31 490 5 180 139 896
2017-04-01 0 14 0 48 4 179
2017-04-02 1 21 0 41 11 405
2017-04-03 2 14 0 44 1 551
2017-04-04 0 6 0 22 930
2017-04-05 2 13 0 19 1 221
2017-04-06 0 20 0 20 4 204
2017-04-07 0 9 0 19 2 345
2017-04-08 1 18 0 22 2 529
2017-04-09 1 5 1 17 1 209
2017-04-10 3 36 1 44 2 839
2017-04-11 2 22 0 74 4 607
2017-04-12 2 19 0 62 5 808
2017-04-13 0 31 0 64 3 713
2017-04-14 2 35 0 59 3 257
2017-04-15 0 8 0 68 3 136
2017-04-16 0 12 0 63 3 438
2017-04-17 2 22 0 58 3 762
2017-04-18 2 30 0 81 5 391
2017-04-19 1 23 1 122 6 928
2017-04-20 1 8 0 68 5 309
2017-04-21 0 14 0 51 3 988
2017-04-22 0 2 0 47 4 082
2017-04-23 2 18 0 51 6 943
2017-04-24 1 15 1 51 4 833
2017-04-25 2 26 1 180 6 646
2017-04-26 3 19 0 83 8 145
2017-04-27 0 2 0 68 8 631
2017-04-28 0 2 0 61 4 684
2017-04-29 1 18 0 58 6 307
2017-04-30 0 8 0 54 7 876
Mars 2017 27 432 3 119 90 981
2017-03-01 1 13 0 20 1 366
2017-03-02 1 7 1 15 939
2017-03-03 4 15 0 16 1 322
2017-03-04 1 4 1 14 1 224
2017-03-05 0 11 0 14 760
2017-03-06 1 36 1 17 1 184
2017-03-07 0 14 0 18 1 120
2017-03-08 2 22 0 19 1 229
2017-03-09 1 23 0 15 1 153
2017-03-10 0 22 0 15 1 149
2017-03-11 0 15 0 16 1 171
2017-03-12 3 16 0 91 4 295
2017-03-13 0 14 0 91 4 471
2017-03-14 1 18 0 79 3 743
2017-03-15 0 9 0 71 3 377
2017-03-16 1 16 0 70 3 703
2017-03-17 0 8 0 73 3 263
2017-03-18 0 13 0 64 3 669
2017-03-19 0 9 0 92 3 639
2017-03-20 0 11 0 90 4 905
2017-03-21 2 6 0 83 5 720
2017-03-22 2 14 0 95 4 760
2017-03-23 1 9 0 66 6 486
2017-03-24 2 12 0 65 2 928
2017-03-25 0 15 0 67 3 275
2017-03-26 2 8 0 55 1 890
2017-03-27 0 16 0 119 3 309
2017-03-28 1 17 0 87 4 615
2017-03-29 0 20 0 86 4 109
2017-03-30 1 7 0 69 3 543
2017-03-31 0 12 0 73 2 664
Février 2017 31 587 7 87 74 924
Janvier 2017 27 496 5 80 114 636
2017-01-01 1 23 0 54 2 509
2017-01-02 2 27 0 28 2 705
2017-01-03 0 12 0 73 3 331
2017-01-04 1 5 0 65 3 498
2017-01-05 1 16 0 64 3 927
2017-01-06 0 18 0 65 3 258
2017-01-07 1 9 1 53 3 015
2017-01-08 0 16 0 57 3 949
2017-01-09 0 5 0 52 5 170
2017-01-10 1 9 0 49 4 823
2017-01-11 0 15 0 71 3 456
2017-01-12 0 12 1 80 3 183
2017-01-13 0 7 1 58 2 124
2017-01-14 5 10 0 61 2 678
2017-01-15 1 7 0 63 3 386
2017-01-16 1 28 1 59 3 267
2017-01-17 0 8 0 50 2 647
2017-01-18 1 13 0 63 3 800
2017-01-19 0 8 0 57 2 844
2017-01-20 0 22 0 57 3 446
2017-01-21 5 26 0 55 4 318
2017-01-22 0 24 0 55 4 567
2017-01-23 1 24 1 51 4 320
2017-01-24 0 27 0 55 3 811
2017-01-25 0 7 0 73 3 931
2017-01-26 0 16 0 59 4 468
2017-01-27 0 8 0 58 4 403
2017-01-28 0 19 0 58 3 812
2017-01-29 1 20 0 64 5 384
2017-01-30 2 26 0 61 4 841
2017-01-31 3 29 0 68 3 765
* 2016 389 7 721 79 245 2 075 605
Décembre 2016 34 533 2 170 118 206
2016-12-01 0 1 0 74 3 445
2016-12-02 0 8 0 55 3 761
2016-12-03 0 7 0 58 2 184
2016-12-04 9 30 0 53 2 958
2016-12-05 0 35 0 65 4 219
2016-12-06 2 23 0 64 3 665
2016-12-07 1 23 0 60 4 594
2016-12-08 2 17 0 125 6 276
2016-12-09 1 21 0 76 3 458
2016-12-10 2 15 2 61 3 661
2016-12-11 1 37 0 68 3 369
2016-12-12 3 11 0 63 2 902
2016-12-13 0 10 0 59 3 821
2016-12-14 1 18 0 74 4 666
2016-12-15 0 18 0 72 3 378
2016-12-16 1 19 0 35 2 487
2016-12-17 0 8 0 73 2 573
2016-12-18 0 11 0 81 15 525
2016-12-19 1 15 0 61 3 437
2016-12-20 0 9 0 56 3 667
2016-12-21 0 15 0 54 2 974
2016-12-22 0 25 0 56 2 993
2016-12-23 0 13 0 56 3 867
2016-12-24 0 10 0 55 2 712
2016-12-25 1 11 0 170 3 278
2016-12-26 3 10 0 72 3 609
2016-12-27 3 23 0 59 2 265
2016-12-28 1 21 0 51 3 618
2016-12-29 0 34 0 55 2 903
2016-12-30 2 13 0 58 3 351
2016-12-31 0 22 0 54 2 590
Novembre 2016 34 586 6 245 122 991
Octobre 2016 43 726 7 191 160 217
Septembre 2016 26 657 9 85 157 449
2016-09-01 0 6 0 74 4 766
2016-09-02 0 11 0 20 3 957
2016-09-03 2 15 0 24 5 392
2016-09-04 2 24 2 27 6 016
2016-09-05 1 48 0 60 6 378
2016-09-06 0 19 0 64 16 148
2016-09-07 0 25 0 29 5 865
2016-09-08 0 8 1 28 2 521
2016-09-09 2 25 2 66 4 139
2016-09-10 1 13 0 57 3 591
2016-09-11 0 20 0 52 3 703
2016-09-12 5 46 2 56 3 958
2016-09-13 2 32 0 56 4 310
2016-09-14 1 36 0 57 3 961
2016-09-15 0 20 0 54 3 639
2016-09-16 0 8 0 85 5 882
2016-09-17 1 17 1 63 4 479
2016-09-18 1 37 0 55 4 935
2016-09-19 1 18 0 55 4 541
2016-09-20 2 43 0 53 6 073
2016-09-21 0 23 0 43 3 742
2016-09-22 1 18 1 53 4 611
2016-09-23 0 15 0 70 4 243
2016-09-24 0 18 0 70 5 283
2016-09-25 2 19 0 59 15 111
2016-09-26 0 12 0 62 4 202
2016-09-27 1 10 0 55 4 151
2016-09-28 1 28 0 55 4 096
2016-09-29 0 24 0 58 3 581
2016-09-30 0 19 0 55 4 175
Août 2016 31 721 9 114 169 873
2016-08-01 0 34 0 56 15 771
2016-08-02 1 24 0 49 4 965
2016-08-03 0 15 0 54 4 374
2016-08-04 0 39 0 46 4 547
2016-08-05 1 46 1 42 4 740
2016-08-06 0 18 0 49 4 109
2016-08-07 9 43 2 54 3 599
2016-08-08 1 25 0 48 3 592
2016-08-09 0 15 0 49 3 725
2016-08-10 0 19 0 45 4 264
2016-08-11 1 9 0 44 3 140
2016-08-12 1 24 0 45 4 209
2016-08-13 0 13 2 48 4 850
2016-08-14 2 31 2 46 4 216
2016-08-15 0 27 0 25 3 114
2016-08-16 1 23 0 30 2 754
2016-08-17 1 30 0 30 3 105
2016-08-18 0 16 0 60 3 872
2016-08-19 0 27 0 58 4 655
2016-08-20 1 23 0 72 4 528
2016-08-21 0 6 0 64 4 231
2016-08-22 0 19 0 114 6 004
2016-08-23 1 25 0 103 5 871
2016-08-24 1 24 0 59 3 064
2016-08-25 0 7 0 90 16 785
2016-08-26 1 16 0 69 17 998
2016-08-27 0 12 0 72 4 035
2016-08-28 7 42 1 73 3 576
2016-08-29 0 27 0 77 5 294
2016-08-30 1 27 1 71 5 843
2016-08-31 1 15 0 69 5 043
Juillet 2016 19 513 3 58 166 690
Juin 2016 30 565 5 53 211 715
Mai 2016 40 1 116 8 94 166 514
Avril 2016 27 529 7 65 155 208
2016-04-01 3 38 2 30 3 618
2016-04-02 0 23 1 23 3 917
2016-04-03 3 45 1 65 6 292
2016-04-04 3 45 0 31 4 738
2016-04-05 0 6 0 26 3 350
2016-04-06 0 15 0 22 4 462
2016-04-07 1 13 1 21 3 485
2016-04-08 0 9 0 23 3 328
2016-04-09 2 17 0 24 3 870
2016-04-10 0 13 0 25 4 267
2016-04-11 0 19 0 55 6 024
2016-04-12 1 16 0 59 14 106
2016-04-13 4 14 0 59 11 237
2016-04-14 0 14 0 52 5 426
2016-04-15 1 14 0 20 3 457
2016-04-16 0 7 0 50 5 198
2016-04-17 0 2 0 49 5 204
2016-04-18 1 17 1 20 4 013
2016-04-19 0 11 1 20 3 807
2016-04-20 1 17 0 23 3 488
2016-04-21 0 16 0 25 3 419
2016-04-22 0 21 0 37 4 063
2016-04-23 0 8 0 36 4 166
2016-04-24 1 14 0 37 5 654
2016-04-25 2 25 0 65 6 602
2016-04-26 0 16 0 63 5 983
2016-04-27 0 20 0 49 6 244
2016-04-28 1 12 0 54 6 223
2016-04-29 3 29 0 22 4 065
2016-04-30 0 13 0 56 5 502
Mars 2016 35 513 11 88 224 056
Février 2016 35 640 4 96 192 454
Janvier 2016 35 622 8 95 230 232
* 2015 373 6 684 79 100 1 549 803
Décembre 2015 28 499 7 68 140 303
2015-12-01 0 25 0 16 2 350
2015-12-02 0 13 0 16 2 355
2015-12-03 1 32 1 21 3 677
2015-12-04 0 20 0 17 2 064
2015-12-05 0 16 1 21 3 894
2015-12-06 0 13 0 20 5 745
2015-12-07 0 6 0 35 3 625
2015-12-08 1 17 0 32 4 443
2015-12-09 0 4 0 35 7 622
2015-12-10 1 6 0 32 5 400
2015-12-11 0 19 0 35 19 913
2015-12-12 1 21 1 25 3 299
2015-12-13 7 38 0 30 4 377
2015-12-14 0 26 0 27 3 642
2015-12-15 2 29 1 32 5 486
2015-12-16 4 39 0 37 6 111
2015-12-17 0 14 0 18 3 269
2015-12-18 0 17 0 13 2 944
2015-12-19 1 16 0 18 3 387
2015-12-20 0 14 0 17 3 339
2015-12-21 0 2 0 14 2 174
2015-12-22 0 0 1 21 3 147
2015-12-23 2 10 0 14 2 552
2015-12-24 1 11 0 43 2 912
2015-12-25 2 20 0 13 2 346
2015-12-26 0 10 0 12 2 235
2015-12-27 1 11 0 10 6 406
2015-12-28 3 29 1 65 5 360
2015-12-29 0 2 1 53 4 266
2015-12-30 1 12 0 68 5 376
2015-12-31 0 7 0 57 6 587
Novembre 2015 40 724 5 35 146 607
Octobre 2015 32 760 10 84 227 528
Septembre 2015 40 948 13 100 169 012
2015-09-01 3 40 0 23 4 812
2015-09-02 0 52 2 72 5 791
2015-09-03 0 21 0 16 4 722
2015-09-04 2 20 1 67 4 506
2015-09-05 2 40 2 79 8 360
2015-09-06 1 58 0 21 4 206
2015-09-07 0 27 1 17 3 924
2015-09-08 6 44 0 100 9 516
2015-09-09 1 26 0 74 6 952
2015-09-10 0 37 1 73 5 976
2015-09-11 0 43 0 80 7 212
2015-09-12 0 23 0 81 5 584
2015-09-13 0 30 0 74 5 189
2015-09-14 1 25 1 19 3 457
2015-09-15 2 18 0 20 2 649
2015-09-16 1 23 0 62 4 565
2015-09-17 0 10 0 59 5 055
2015-09-18 0 36 0 72 4 251
2015-09-19 1 36 0 73 4 774
2015-09-20 1 41 1 69 4 977
2015-09-21 1 23 0 75 11 093
2015-09-22 6 28 1 22 3 585
2015-09-23 0 33 0 65 5 593
2015-09-24 1 42 0 71 5 489
2015-09-25 3 24 0 17 3 955
2015-09-26 2 25 1 77 5 774
2015-09-27 3 47 1 88 6 711
2015-09-28 2 34 0 79 7 065
2015-09-29 0 6 0 27 5 105
2015-09-30 1 36 1 85 8 164
Août 2015 36 566 12 61 119 954
Juillet 2015 29 462 7 31 89 666
Juin 2015 24 453 5 30 112 317
Mai 2015 30 390 2 24 73 874
2015-05-01 0 17 0 15 2 030
2015-05-02 1 16 0 16 2 557
2015-05-03 1 29 0 18 2 371
2015-05-04 2 17 0 21 1 947
2015-05-05 0 2 0 16 1 636
2015-05-06 0 8 0 15 2 047
2015-05-07 0 6 0 14 2 022
2015-05-08 0 3 0 15 1 847
2015-05-09 0 5 0 18 1 813
2015-05-10 2 5 0 13 1 887
2015-05-11 0 6 0 14 1 631
2015-05-12 2 20 1 13 2 423
2015-05-13 0 11 0 13 2 977
2015-05-14 0 11 0 24 3 549
2015-05-15 2 11 0 18 2 773
2015-05-16 1 3 1 15 2 585
2015-05-17 0 6 0 12 2 212
2015-05-18 4 29 0 14 2 715
2015-05-19 0 8 0 15 1 683
2015-05-20 0 3 0 12 1 911
2015-05-21 1 4 0 13 2 338
2015-05-22 1 8 0 12 1 807
2015-05-23 1 6 0 15 2 186
2015-05-24 2 15 0 19 4 554
2015-05-25 1 21 0 24 2 499
2015-05-26 2 20 0 18 2 489
2015-05-27 0 21 0 17 1 695
2015-05-28 3 38 0 14 2 854
2015-05-29 4 23 0 15 4 584
2015-05-30 0 13 0 16 1 591
2015-05-31 0 5 0 11 2 661
Avril 2015 29 408 4 25 95 371
2015-04-01 1 15 0 20 2 794
2015-04-02 1 21 0 16 2 834
2015-04-03 0 14 0 17 2 508
2015-04-04 0 8 0 15 1 598
2015-04-05 0 4 0 16 4 225
2015-04-06 1 5 0 22 4 037
2015-04-07 1 8 0 17 3 300
2015-04-08 0 16 0 22 2 846
2015-04-09 0 3 0 18 3 300
2015-04-10 2 18 0 22 3 304
2015-04-11 1 19 1 18 3 102
2015-04-12 0 7 1 12 2 663
2015-04-13 1 10 0 14 3 621
2015-04-14 0 16 0 25 2 946
2015-04-15 0 5 0 17 2 800
2015-04-16 0 3 0 19 3 815
2015-04-17 1 9 0 16 3 313
2015-04-18 0 11 0 16 3 035
2015-04-19 0 5 0 16 4 184
2015-04-20 1 8 0 16 2 818
2015-04-21 0 1 0 18 2 616
2015-04-22 1 13 0 18 2 909
2015-04-23 0 19 0 24 4 246
2015-04-24 0 18 0 18 3 149
2015-04-25 8 32 1 17 3 211
2015-04-26 4 35 0 20 3 250
2015-04-27 3 35 0 18 3 609
2015-04-28 0 6 0 13 3 318
2015-04-29 2 23 1 16 3 839
2015-04-30 1 21 0 16 2 181
Mars 2015 38 550 7 37 130 116
Février 2015 15 434 2 24 123 854
Janvier 2015 32 490 5 44 121 201
* 2014 428 7 364 58 58 2 478 164
Décembre 2014 24 360 4 33 191 610
Novembre 2014 37 572 7 46 525 858
Octobre 2014 45 928 8 58 364 915
Septembre 2014 24 549 8 32 162 413
Août 2014 17 251 4 27 191 624
Juillet 2014 25 369 3 30 236 312
Juin 2014 29 602 3 32 220 918
Mai 2014 34 842 6 29 157 174
Avril 2014 45 662 1 25 104 486
Mars 2014 32 595 4 26 120 439
2014-03-01 0 12 1 20 3 786
2014-03-02 1 4 1 24 3 590
2014-03-03 0 7 0 20 2 446
2014-03-04 0 23 0 20 3 629
2014-03-05 2 22 0 21 3 661
2014-03-06 1 18 0 20 2 585
2014-03-07 0 15 0 23 2 700
2014-03-08 1 13 0 21 2 461
2014-03-09 0 4 0 19 2 983
2014-03-10 0 19 0 16 2 791
2014-03-11 1 19 0 19 3 130
2014-03-12 0 16 0 21 3 522
2014-03-13 1 31 0 22 5 550
2014-03-14 0 16 0 26 4 818
2014-03-15 1 11 0 21 5 306
2014-03-16 4 19 0 24 6 026
2014-03-17 3 25 0 20 3 862
2014-03-18 2 35 0 22 5 721
2014-03-19 0 19 0 21 4 981
2014-03-20 1 25 1 18 3 637
2014-03-21 1 27 0 24 5 005
2014-03-22 1 13 0 20 4 151
2014-03-23 4 27 0 20 5 982
2014-03-24 2 46 0 21 4 374
2014-03-25 0 26 0 18 2 690
2014-03-26 2 23 1 19 3 653
2014-03-27 0 19 0 20 3 562
2014-03-28 3 18 0 20 3 984
2014-03-29 0 17 0 17 3 432
2014-03-30 0 7 0 17 2 121
2014-03-31 1 19 0 18 4 300
Février 2014 24 660 5 28 102 996
Janvier 2014 92 974 5 33 99 419
* 2013 408 8 887 76 89 1 597 727
Décembre 2013 36 785 2 79 132 305
2013-12-01 3 40 0 21 5 124
2013-12-02 0 18 0 23 3 630
2013-12-03 1 22 0 18 2 691
2013-12-04 0 21 0 20 2 917
2013-12-05 2 34 1 74 3 596
2013-12-06 0 14 0 29 4 033
2013-12-07 0 11 0 21 3 141
2013-12-08 2 50 0 20 11 319
2013-12-09 3 47 0 79 15 790
2013-12-10 0 42 0 40 6 438
2013-12-11 0 29 0 23 4 171
2013-12-12 1 32 0 22 3 225
2013-12-13 1 21 0 26 3 543
2013-12-14 0 11 0 23 4 807
2013-12-15 0 20 0 17 3 540
2013-12-16 5 50 0 22 4 009
2013-12-17 2 27 0 23 3 856
2013-12-18 1 53 0 23 4 339
2013-12-19 0 23 0 18 3 138
2013-12-20 0 5 0 16 1 779
2013-12-21 1 26 0 22 3 370
2013-12-22 3 27 0 22 4 250
2013-12-23 0 7 1 16 2 431
2013-12-24 1 16 0 14 2 139
2013-12-25 1 20 0 14 2 448
2013-12-26 0 14 0 17 3 918
2013-12-27 0 31 0 27 3 690
2013-12-28 2 32 0 22 4 302
2013-12-29 2 16 0 19 3 362
2013-12-30 3 13 0 15 3 871
2013-12-31 2 13 0 19 3 438
Novembre 2013 36 751 8 29 141 119
Octobre 2013 37 683 10 26 116 570
Septembre 2013 33 723 15 29 160 779
Août 2013 20 356 4 30 113 960
Juillet 2013 21 331 2 24 120 164
Juin 2013 40 731 5 34 119 512
Mai 2013 34 881 3 47 157 484
2013-05-01 0 15 0 18 4 248
2013-05-02 0 9 0 19 6 085
2013-05-03 0 16 0 17 4 788
2013-05-04 2 16 0 20 4 230
2013-05-05 2 34 0 24 4 982
2013-05-06 2 53 0 21 4 256
2013-05-07 0 38 0 21 4 459
2013-05-08 3 29 0 21 4 111
2013-05-09 0 36 0 31 5 286
2013-05-10 0 28 0 47 6 457
2013-05-11 2 28 0 18 5 554
2013-05-12 1 35 0 17 4 775
2013-05-13 2 40 0 19 8 701
2013-05-14 2 34 0 19 5 271
2013-05-15 2 34 0 18 4 752
2013-05-16 0 40 0 20 6 246
2013-05-17 1 24 1 20 5 171
2013-05-18 2 12 0 18 5 484
2013-05-19 1 36 0 22 3 824
2013-05-20 0 9 0 20 5 481
2013-05-21 0 4 0 17 6 094
2013-05-22 1 21 0 17 4 610
2013-05-23 1 14 0 18 5 776
2013-05-24 0 22 0 18 5 736
2013-05-25 0 8 0 17 3 869
2013-05-26 1 32 0 20 4 951
2013-05-27 3 26 0 18 5 140
2013-05-28 0 33 0 21 3 623
2013-05-29 1 34 0 18 3 927
2013-05-30 4 51 2 18 4 466
2013-05-31 1 70 0 20 5 131
Avril 2013 38 799 8 33 124 279
2013-04-01 4 20 0 24 3 359
2013-04-02 1 47 0 21 4 467
2013-04-03 0 45 0 23 3 233
2013-04-04 0 33 0 16 2 834
2013-04-05 0 17 0 19 3 016
2013-04-06 2 17 1 21 4 302
2013-04-07 1 58 0 33 4 201
2013-04-08 0 22 0 17 4 107
2013-04-09 3 42 0 18 3 737
2013-04-10 1 19 0 16 3 054
2013-04-11 2 20 0 18 2 700
2013-04-12 2 22 1 17 2 910
2013-04-13 0 8 2 17 2 288
2013-04-14 0 22 0 16 2 273
2013-04-15 0 18 0 20 2 553
2013-04-16 2 35 2 23 4 161
2013-04-17 3 14 0 15 2 830
2013-04-18 0 20 0 21 2 765
2013-04-19 0 13 0 22 3 929
2013-04-20 1 9 0 17 4 630
2013-04-21 3 33 0 15 4 446
2013-04-22 5 26 1 18 5 097
2013-04-23 1 41 0 26 5 957
2013-04-24 2 35 0 21 7 277
2013-04-25 1 26 0 22 3 866
2013-04-26 1 35 0 22 3 466
2013-04-27 1 41 1 19 7 601
2013-04-28 1 28 0 26 7 931
2013-04-29 1 26 0 19 6 992
2013-04-30 0 7 0 18 4 297
Mars 2013 40 1 111 9 62 147 762
Février 2013 32 838 5 79 125 299
Janvier 2013 41 898 5 89 138 494
* 2012 446 10 690 67 157 1 274 957
Décembre 2012 57 1 411 4 45 150 137
Novembre 2012 46 1 137 8 25 112 399
Octobre 2012 45 1 068 7 25 80 970
Septembre 2012 37 876 11 38 107 023
2012-09-01 0 8 1 16 2 575
2012-09-02 5 43 0 17 3 826
2012-09-03 2 46 0 23 3 659
2012-09-04 1 28 1 17 3 491
2012-09-05 1 45 0 20 3 793
2012-09-06 1 48 0 15 3 882
2012-09-07 0 23 0 17 3 089
2012-09-08 2 35 0 34 3 530
2012-09-09 2 20 1 15 3 371
2012-09-10 4 46 1 27 3 558
2012-09-11 3 41 1 15 3 139
2012-09-12 1 57 0 35 4 503
2012-09-13 0 15 0 38 4 800
2012-09-14 0 18 0 19 3 751
2012-09-15 0 4 0 25 3 135
2012-09-16 2 31 0 21 3 471
2012-09-17 1 51 0 20 3 662
2012-09-18 1 37 2 21 3 924
2012-09-19 0 20 0 22 4 623
2012-09-20 0 24 1 20 4 039
2012-09-21 1 31 1 23 4 071
2012-09-22 0 14 0 23 3 551
2012-09-23 1 14 0 21 3 462
2012-09-24 2 48 1 22 4 769
2012-09-25 4 39 1 23 3 691
2012-09-26 0 22 0 20 3 237
2012-09-27 0 21 0 25 3 229
2012-09-28 0 13 0 16 2 068
2012-09-29 2 16 0 15 1 970
2012-09-30 1 18 0 14 3 154
Août 2012 30 595 5 41 95 032
2012-08-01 1 10 0 13 3 408
2012-08-02 0 21 0 19 2 532
2012-08-03 0 19 0 15 2 650
2012-08-04 0 3 0 14 1 909
2012-08-05 0 5 0 12 1 913
2012-08-06 1 18 1 15 2 288
2012-08-07 0 13 0 15 2 613
2012-08-08 2 12 0 13 3 743
2012-08-09 1 27 0 14 3 247
2012-08-10 0 14 0 41 3 163
2012-08-11 2 20 1 20 2 655
2012-08-12 0 22 0 13 2 610
2012-08-13 2 54 1 18 3 586
2012-08-14 1 22 0 15 3 230
2012-08-15 1 15 0 15 2 618
2012-08-16 3 23 0 14 3 024
2012-08-17 0 7 0 19 3 643
2012-08-18 0 4 0 14 2 628
2012-08-19 3 17 0 16 3 017
2012-08-20 2 20 0 14 3 296
2012-08-21 0 12 1 16 3 643
2012-08-22 2 14 0 18 3 501
2012-08-23 0 26 0 17 3 497
2012-08-24 0 14 0 15 3 563
2012-08-25 0 23 0 16 3 262
2012-08-26 2 15 0 14 3 447
2012-08-27 1 23 0 13 3 342
2012-08-28 1 4 0 17 2 817
2012-08-29 2 22 0 20 3 476
2012-08-30 2 67 1 18 3 756
2012-08-31 1 29 0 29 2 955
Juillet 2012 24 563 2 157 78 638
Juin 2012 39 984 10 33 88 620
Mai 2012 22 703 5 26 77 701
2012-05-01 2 31 0 24 2 676
2012-05-02 2 37 0 16 2 377
2012-05-03 1 28 0 17 2 595
2012-05-04 0 32 0 17 2 833
2012-05-05 2 29 1 21 2 604
2012-05-06 0 26 0 19 3 019
2012-05-07 1 23 0 15 2 984
2012-05-08 1 21 0 15 2 018
2012-05-09 0 22 0 15 1 937
2012-05-10 3 29 1 26 2 194
2012-05-11 1 18 0 17 2 614
2012-05-12 0 25 0 18 2 467
2012-05-13 1 21 0 15 1 929
2012-05-14 0 19 0 15 2 270
2012-05-15 0 20 0 13 2 021
2012-05-16 2 19 1 20 1 978
2012-05-17 0 28 0 17 2 478
2012-05-18 1 11 0 13 2 280
2012-05-19 0 14 0 17 2 552
2012-05-20 0 12 0 20 2 256
2012-05-21 0 14 0 20 3 771
2012-05-22 1 14 0 17 1 888
2012-05-23 2 32 1 14 2 221
2012-05-24 0 39 1 16 2 279
2012-05-25 0 20 0 13 2 197
2012-05-26 0 11 0 12 2 044
2012-05-27 0 17 0 16 2 881
2012-05-28 0 19 0 13 2 192
2012-05-29 2 26 0 19 2 789
2012-05-30 0 14 0 19 4 625
2012-05-31 0 32 0 17 2 732
Avril 2012 33 714 4 33 95 151
Mars 2012 35 977 5 48 160 160
Février 2012 34 704 5 33 117 877
Janvier 2012 44 958 1 30 111 249
* 2011 822 21 877 118 48 1 861 895
Décembre 2011 68 1 315 7 36 141 929
Novembre 2011 94 1 539 4 36 150 015
2011-11-01 3 44 0 23 4 947
2011-11-02 6 67 0 20 4 287
2011-11-03 4 65 0 24 4 618
2011-11-04 10 91 0 19 4 838
2011-11-05 6 39 0 21 3 164
2011-11-06 4 77 0 21 4 609
2011-11-07 6 77 1 20 4 952
2011-11-08 2 48 0 19 3 243
2011-11-09 2 36 0 22 4 723
2011-11-10 4 55 0 19 3 721
2011-11-11 2 37 0 20 3 239
2011-11-12 2 15 0 21 4 391
2011-11-13 1 21 0 27 4 446
2011-11-14 4 60 0 27 4 759
2011-11-15 5 58 0 25 7 805
2011-11-16 2 50 0 23 3 902
2011-11-17 2 49 0 18 3 185
2011-11-18 1 67 0 26 6 226
2011-11-19 0 38 0 26 6 646
2011-11-20 2 61 1 36 8 056
2011-11-21 1 45 0 25 6 692
2011-11-22 1 31 0 30 6 080
2011-11-23 4 50 0 23 4 242
2011-11-24 1 40 0 25 5 667
2011-11-25 2 45 0 24 3 992
2011-11-26 2 43 1 19 3 693
2011-11-27 2 65 1 26 5 393
2011-11-28 4 77 0 31 5 999
2011-11-29 2 39 0 33 5 234
2011-11-30 7 49 0 29 7 266
Octobre 2011 81 1 597 13 41 169 207
Septembre 2011 96 1 991 19 24 158 540
2011-09-01 1 105 0 18 4 820
2011-09-02 0 44 0 17 3 692
2011-09-03 0 35 0 16 3 065
2011-09-04 1 39 1 18 3 341
2011-09-05 4 67 1 21 3 815
2011-09-06 0 37 0 12 5 171
2011-09-07 2 64 2 17 7 762
2011-09-08 2 83 0 23 7 440
2011-09-09 0 103 0 20 8 363
2011-09-10 0 27 0 15 6 046
2011-09-11 11 96 0 24 5 135
2011-09-12 6 137 1 18 5 300
2011-09-13 18 102 0 19 6 004
2011-09-14 5 57 0 22 4 369
2011-09-15 2 43 0 15 3 469
2011-09-16 3 88 0 18 5 547
2011-09-17 1 43 2 19 4 640
2011-09-18 4 42 2 21 5 991
2011-09-19 2 80 0 18 5 773
2011-09-20 4 66 1 22 6 364
2011-09-21 8 83 0 21 5 960
2011-09-22 1 47 2 20 4 972
2011-09-23 2 43 0 18 4 346
2011-09-24 2 44 0 23 3 841
2011-09-25 2 62 3 20 4 963
2011-09-26 1 65 0 19 4 935
2011-09-27 6 66 3 19 4 561
2011-09-28 3 108 1 21 5 839
2011-09-29 5 77 0 18 7 139
2011-09-30 0 38 0 15 5 877
Août 2011 68 1 372 16 48 135 201
Juillet 2011 57 1 156 10 30 112 626
Juin 2011 40 1 214 6 31 149 115
Mai 2011 64 1 997 8 39 181 997
Avril 2011 46 1 637 9 38 176 986
Mars 2011 54 2 388 6 31 211 307
Février 2011 59 2 656 5 46 128 248
Janvier 2011 95 3 015 15 44 146 724
* 2010 615 23 079 70 91 1 409 620
Décembre 2010 54 2 635 5 43 199 984
2010-12-01 4 200 0 33 5 797
2010-12-02 2 80 0 27 4 428
2010-12-03 0 92 0 23 3 768
2010-12-04 1 50 1 19 2 892
2010-12-05 1 52 0 26 3 390
2010-12-06 0 92 0 29 3 863
2010-12-07 1 113 0 34 4 176
2010-12-08 2 59 0 34 4 663
2010-12-09 1 112 1 30 4 738
2010-12-10 0 81 0 26 4 475
2010-12-11 2 57 0 29 3 894
2010-12-12 2 51 0 42 3 962
2010-12-13 3 63 0 32 4 381
2010-12-14 2 89 0 32 7 458
2010-12-15 2 146 0 32 8 138
2010-12-16 1 120 0 33 13 324
2010-12-17 2 134 0 43 25 752
2010-12-18 1 65 0 17 12 634
2010-12-19 3 59 0 21 14 562
2010-12-20 4 92 1 26 8 417
2010-12-21 1 83 1 24 6 202
2010-12-22 4 109 0 34 8 319
2010-12-23 2 97 0 31 4 509
2010-12-24 0 19 0 17 4 671
2010-12-25 2 33 0 33 4 728
2010-12-26 2 42 0 31 4 717
2010-12-27 3 132 1 41 5 593
2010-12-28 1 78 0 43 4 517
2010-12-29 2 117 0 31 4 767
2010-12-30 2 87 0 24 4 387
2010-12-31 1 31 0 24 2 862
Novembre 2010 59 2 475 6 49 127 779
Octobre 2010 56 2 811 15 58 134 942
Septembre 2010 53 1 528 8 29 95 249
2010-09-01 2 64 1 15 3 537
2010-09-02 2 76 0 14 3 989
2010-09-03 3 85 0 19 3 885
2010-09-04 1 38 0 20 3 616
2010-09-05 1 48 0 26 5 204
2010-09-06 1 76 0 24 4 914
2010-09-07 0 30 0 17 2 733
2010-09-08 4 80 1 15 3 386
2010-09-09 7 72 0 17 2 897
2010-09-10 1 40 0 21 3 001
2010-09-11 1 30 1 19 2 447
2010-09-12 1 38 0 14 2 426
2010-09-13 1 35 1 17 3 257
2010-09-14 2 49 0 15 2 984
2010-09-15 1 33 0 19 2 355
2010-09-16 0 16 0 15 2 237
2010-09-17 2 27 0 14 2 374
2010-09-18 0 12 0 11 2 345
2010-09-19 1 18 0 17 2 430
2010-09-20 6 97 0 20 3 524
2010-09-21 4 72 2 19 3 395
2010-09-22 3 66 0 29 3 745
2010-09-23 1 45 0 17 3 086
2010-09-24 0 27 0 11 2 457
2010-09-25 3 45 0 17 2 727
2010-09-26 1 68 0 22 3 215
2010-09-27 0 62 1 15 2 961
2010-09-28 3 71 0 17 3 530
2010-09-29 1 56 1 21 4 026
2010-09-30 0 52 0 12 2 566
Août 2010 32 1 287 6 33 89 617
Juillet 2010 34 1 637 5 32 97 290
2010-07-01 1 30 0 21 3 321
2010-07-02 1 52 1 16 3 049
2010-07-03 1 37 0 16 2 560
2010-07-04 0 16 0 13 2 269
2010-07-05 4 85 0 26 4 056
2010-07-06 0 91 0 21 4 081
2010-07-07 1 121 1 21 4 639
2010-07-08 1 73 0 24 3 929
2010-07-09 1 79 0 24 3 726
2010-07-10 0 27 0 17 2 693
2010-07-11 1 29 0 17 2 442
2010-07-12 0 62 0 32 4 813
2010-07-13 2 51 0 17 2 918
2010-07-14 1 36 0 21 3 013
2010-07-15 0 52 0 19 3 510
2010-07-16 1 70 0 16 3 362
2010-07-17 1 24 0 13 2 507
2010-07-18 4 28 0 14 2 203
2010-07-19 2 62 0 17 3 256
2010-07-20 0 28 0 22 2 386
2010-07-21 0 42 0 21 2 918
2010-07-22 3 41 2 28 2 834
2010-07-23 1 66 0 16 3 158
2010-07-24 0 49 1 24 2 730
2010-07-25 0 44 0 20 2 856
2010-07-26 1 74 0 20 3 201
2010-07-27 0 44 0 18 3 066
2010-07-28 6 60 0 24 2 949
2010-07-29 0 55 0 19 2 833
2010-07-30 0 72 0 22 3 484
2010-07-31 1 37 0 20 2 528
Juin 2010 46 2 137 3 28 109 648
Mai 2010 50 1 497 6 28 99 050
Avril 2010 45 1 888 3 26 102 219
Mars 2010 53 1 534 2 46 118 201
Février 2010 65 1 574 4 91 117 274
Janvier 2010 68 2 076 7 43 118 367
* 2009 752 28 223 96 159 970 278
Décembre 2009 39 2 001 5 54 122 418
Novembre 2009 59 3 138 6 38 117 432
Octobre 2009 67 3 218 11 18 122 232
Septembre 2009 73 2 730 14 159 92 082
Août 2009 47 1 405 8 15 61 919
Juillet 2009 68 1 737 11 21 67 267
2009-07-01 4 69 0 14 2 659
2009-07-02 1 67 0 14 2 889
2009-07-03 3 120 2 13 3 026
2009-07-04 1 34 2 12 1 683
2009-07-05 3 64 0 12 1 809
2009-07-06 1 84 1 13 2 368
2009-07-07 1 48 0 11 1 662
2009-07-08 1 41 0 15 1 638
2009-07-09 1 44 1 10 1 732
2009-07-10 2 66 0 14 2 604
2009-07-11 0 31 0 21 1 808
2009-07-12 3 59 1 13 2 004
2009-07-13 1 32 0 18 2 007
2009-07-14 3 33 0 12 1 611
2009-07-15 0 53 0 13 1 922
2009-07-16 1 60 0 12 1 847
2009-07-17 4 83 1 11 2 287
2009-07-18 5 30 1 9 1 496
2009-07-19 3 31 0 8 1 392
2009-07-20 4 127 2 13 3 012
2009-07-21 1 71 0 10 2 792
2009-07-22 5 65 0 11 2 902
2009-07-23 3 53 0 11 2 311
2009-07-24 2 42 0 12 4 785
2009-07-25 1 24 0 10 1 411
2009-07-26 0 18 0 8 1 221
2009-07-27 7 76 0 11 2 378
2009-07-28 3 67 0 12 2 057
2009-07-29 1 39 0 13 1 662
2009-07-30 2 35 0 8 2 204
2009-07-31 1 71 0 9 2 088
Juin 2009 63 2 759 4 37 72 789
Mai 2009 46 2 166 6 16 66 386
2009-05-01 1 129 0 10 2 835
2009-05-02 1 42 1 14 1 469
2009-05-03 0 68 0 13 1 801
2009-05-04 3 101 1 16 2 844
2009-05-05 2 74 1 13 2 433
2009-05-06 4 156 0 15 3 705
2009-05-07 1 47 0 12 1 946
2009-05-08 1 54 1 9 1 538
2009-05-09 2 46 0 10 1 306
2009-05-10 2 58 0 12 1 788
2009-05-11 0 77 0 13 2 263
2009-05-12 1 49 1 11 2 134
2009-05-13 0 31 0 11 1 993
2009-05-14 0 65 0 12 2 003
2009-05-15 0 75 0 11 2 324
2009-05-16 2 36 0 8 1 545
2009-05-17 1 52 1 13 2 284
2009-05-18 0 40 0 11 2 729
2009-05-19 1 60 0 11 2 402
2009-05-20 0 90 0 10 2 220
2009-05-21 5 54 0 10 1 843
2009-05-22 0 36 0 10 1 520
2009-05-23 0 38 0 8 1 804
2009-05-24 5 74 0 10 2 169
2009-05-25 6 80 0 13 2 515
2009-05-26 1 105 0 13 2 637
2009-05-27 4 128 0 14 3 088
2009-05-28 0 85 0 9 1 806
2009-05-29 0 82 0 11 2 137
2009-05-30 0 48 0 8 1 394
2009-05-31 3 86 0 13 1 911
Avril 2009 101 2 850 6 16 73 303
Mars 2009 80 3 538 7 17 83 610
2009-03-01 2 54 0 15 1 561
2009-03-02 8 178 2 16 4 208
2009-03-03 1 86 0 11 2 528
2009-03-04 1 39 0 15 1 730
2009-03-05 1 32 0 12 1 412
2009-03-06 0 34 0 10 2 207
2009-03-07 8 30 0 10 1 601
2009-03-08 2 122 0 17 2 214
2009-03-09 4 189 0 12 3 447
2009-03-10 2 93 0 12 2 867
2009-03-11 1 79 0 9 2 060
2009-03-12 1 101 0 9 2 336
2009-03-13 3 107 0 11 2 370
2009-03-14 0 47 0 10 1 454
2009-03-15 3 95 0 10 2 287
2009-03-16 2 149 0 15 3 335
2009-03-17 3 88 0 10 2 474
2009-03-18 1 117 2 11 2 993
2009-03-19 0 145 0 14 3 058
2009-03-20 0 159 0 14 3 545
2009-03-21 2 45 1 9 1 470
2009-03-22 2 143 0 11 2 597
2009-03-23 3 163 0 13 3 325
2009-03-24 6 212 0 11 3 583
2009-03-25 6 222 0 12 4 229
2009-03-26 7 166 0 14 3 647
2009-03-27 3 168 0 12 3 580
2009-03-28 0 67 1 8 1 864
2009-03-29 3 123 1 11 2 814
2009-03-30 5 184 0 15 3 914
2009-03-31 0 101 0 10 2 900
Février 2009 57 1 586 6 16 50 521
Janvier 2009 52 1 095 12 10 40 319
* 2008 334 4 655 56 26 234 055
Décembre 2008 36 663 7 12 28 104
2008-12-01 3 30 0 10 1 312
2008-12-02 0 30 0 7 1 279
2008-12-03 3 41 0 12 1 017
2008-12-04 2 33 0 7 1 133
2008-12-05 2 40 1 7 1 117
2008-12-06 0 7 0 5 831
2008-12-07 1 21 0 5 1 053
2008-12-08 1 30 0 8 1 116
2008-12-09 2 39 0 8 1 045
2008-12-10 0 13 0 6 555
2008-12-11 1 29 2 8 1 021
2008-12-12 0 29 1 9 1 230
2008-12-13 2 32 0 11 1 196
2008-12-14 3 17 1 8 973
2008-12-15 1 21 0 9 868
2008-12-16 3 51 1 9 1 403
2008-12-17 0 19 1 7 950
2008-12-18 1 7 0 10 889
2008-12-19 0 26 0 8 1 051
2008-12-20 2 19 0 8 964
2008-12-21 2 20 0 5 722
2008-12-22 0 10 0 5 689
2008-12-23 0 22 0 8 909
2008-12-24 0 8 0 4 427
2008-12-25 0 11 0 5 344
2008-12-26 2 17 0 6 566
2008-12-27 0 2 0 5 628
2008-12-28 1 8 0 5 684
2008-12-29 1 9 0 5 880
2008-12-30 1 8 0 5 575
2008-12-31 2 14 0 6 677
Novembre 2008 51 1 090 9 10 35 948
Octobre 2008 50 609 5 10 26 582
Septembre 2008 40 619 5 10 24 365
2008-09-01 0 6 0 7 539
2008-09-02 2 16 0 0 576
2008-09-03 1 13 0 5 857
2008-09-04 1 9 0 6 627
2008-09-05 1 15 0 7 829
2008-09-06 1 7 0 6 671
2008-09-07 1 17 0 4 1 181
2008-09-08 5 29 0 6 1 459
2008-09-09 0 2 0 5 741
2008-09-10 1 9 0 5 540
2008-09-11 0 7 0 6 574
2008-09-12 2 27 0 7 779
2008-09-13 0 11 0 6 602
2008-09-14 0 5 0 6 478
2008-09-15 6 28 1 6 990
2008-09-16 1 15 0 6 639
2008-09-17 0 26 1 7 1 061
2008-09-18 1 14 0 6 720
2008-09-19 1 16 0 6 620
2008-09-20 0 9 0 5 403
2008-09-21 2 17 2 6 630
2008-09-22 0 32 0 7 887
2008-09-23 1 22 0 10 697
2008-09-24 3 54 0 10 1 244
2008-09-25 3 27 0 7 873
2008-09-26 1 23 0 6 770
2008-09-27 0 21 0 8 670
2008-09-28 2 35 0 7 911
2008-09-29 2 57 0 6 1 560
2008-09-30 2 50 1 9 1 237
Août 2008 28 252 6 9 21 916
Juillet 2008 20 256 5 7 16 733
Juin 2008 17 363 6 26 18 903
Mai 2008 17 180 2 10 13 320
2008-05-01 0 2 0 3 298
2008-05-02 0 7 0 3 301
2008-05-03 0 2 0 3 238
2008-05-04 0 2 0 4 802
2008-05-05 1 4 0 3 331
2008-05-06 0 6 0 0 392
2008-05-07 0 2 0 4 358
2008-05-08 0 1 0 2 277
2008-05-09 0 5 1 4 290
2008-05-10 0 2 0 3 288
2008-05-11 1 2 0 2 369
2008-05-12 1 6 0 5 569
2008-05-13 1 10 0 5 595
2008-05-14 0 16 1 4 626
2008-05-15 3 13 0 0 742
2008-05-16 0 7 0 5 526
2008-05-17 1 7 0 5 478
2008-05-18 0 3 0 4 760
2008-05-19 0 4 0 4 495
2008-05-20 1 5 0 3 347
2008-05-21 0 12 0 4 459
2008-05-22 0 4 0 5 505
2008-05-23 0 3 0 3 360
2008-05-24 1 8 0 4 308
2008-05-25 0 5 0 2 261
2008-05-26 0 7 0 3 260
2008-05-27 0 3 0 10 398
2008-05-28 3 8 0 7 411
2008-05-29 0 5 0 5 350
2008-05-30 1 9 0 0 574
2008-05-31 3 10 0 5 352
Avril 2008 16 146 3 8 16 063
2008-04-01 1 11 0 4 553
2008-04-02 0 4 0 7 503
2008-04-03 2 14 1 4 1 518
2008-04-04 0 6 0 0 1 184
2008-04-05 0 2 0 3 955
2008-04-06 1 4 0 4 680
2008-04-07 1 6 0 4 582
2008-04-08 0 6 0 4 448
2008-04-09 0 1 0 3 419
2008-04-10 1 1 0 5 432
2008-04-11 0 1 0 3 780
2008-04-12 0 4 0 5 909
2008-04-13 0 4 0 3 540
2008-04-14 0 3 1 0 516
2008-04-15 0 1 0 0 343
2008-04-16 0 3 0 0 602
2008-04-17 0 0 0 8 283
2008-04-18 0 1 0 0 415
2008-04-19 0 1 1 4 429
2008-04-20 2 3 0 4 410
2008-04-21 3 15 0 4 521
2008-04-22 0 14 0 6 672
2008-04-23 1 12 0 4 399
2008-04-24 0 3 0 4 350
2008-04-25 0 2 0 4 190
2008-04-26 2 4 0 5 229
2008-04-27 0 2 0 4 308
2008-04-28 0 1 0 4 265
2008-04-29 0 4 0 4 250
2008-04-30 2 13 0 5 378
Mars 2008 18 158 1 9 12 835
Février 2008 19 155 2 9 9 679
Janvier 2008 22 164 5 7 9 607
2008-01-01 0 0 0 3 156
2008-01-02 1 6 0 3 272
2008-01-03 0 4 1 5 375
2008-01-04 0 10 0 5 389
2008-01-05 0 3 1 0 262
2008-01-06 0 3 0 7 269
2008-01-07 1 4 1 0 273
2008-01-08 1 5 0 4 363
2008-01-09 1 6 0 4 353
2008-01-10 2 18 0 4 470
2008-01-11 0 2 0 5 307
2008-01-12 0 0 0 2 173
2008-01-13 0 8 0 3 213
2008-01-14 0 5 0 6 311
2008-01-15 0 4 0 4 276
2008-01-16 0 3 0 4 283
2008-01-17 1 4 0 5 318
2008-01-18 0 7 0 5 340
2008-01-19 1 4 0 5 253
2008-01-20 0 2 1 4 270
2008-01-21 0 4 0 5 319
2008-01-22 2 2 0 0 196
2008-01-23 1 3 0 3 205
2008-01-24 0 6 0 4 222
2008-01-25 0 4 0 4 317
2008-01-26 0 2 0 4 258
2008-01-27 2 4 0 5 300
2008-01-28 4 13 1 5 640
2008-01-29 2 13 0 5 449
2008-01-30 2 9 0 0 384
2008-01-31 1 6 0 4 391
* 2007 276 2 246 55 9 102 999
Décembre 2007 21 167 5 8 17 081
Novembre 2007 20 168 3 6 8 467
Octobre 2007 21 147 4 5 8 193
Septembre 2007 22 183 4 9 9 896
2007-09-01 1 6 0 4 255
2007-09-02 1 7 1 3 302
2007-09-03 2 13 0 5 572
2007-09-04 1 15 1 9 508
2007-09-05 1 4 1 7 396
2007-09-06 1 23 0 6 618
2007-09-07 1 9 1 0 426
2007-09-08 0 5 0 4 308
2007-09-09 0 2 0 5 280
2007-09-10 1 8 0 0 334
2007-09-11 5 17 0 6 584
2007-09-12 0 3 0 7 335
2007-09-13 0 2 0 8 430
2007-09-14 0 3 0 3 253
2007-09-15 0 1 0 2 169
2007-09-16 0 0 0 3 139
2007-09-17 0 3 0 4 258
2007-09-18 0 1 0 5 289
2007-09-19 1 8 0 4 366
2007-09-20 1 4 0 3 258
2007-09-21 1 5 0 3 285
2007-09-22 0 5 0 7 259
2007-09-23 1 2 0 3 272
2007-09-24 0 8 0 4 304
2007-09-25 1 3 0 3 367
2007-09-26 1 5 0 4 246
2007-09-27 0 2 0 4 261
2007-09-28 0 4 0 4 291
2007-09-29 2 11 0 4 373
2007-09-30 0 4 0 0 158
Août 2007 23 226 2 6 9 096
2007-08-01 1 11 0 0 281
2007-08-02 0 4 0 4 224
2007-08-03 2 13 1 0 357
2007-08-04 0 5 0 3 265
2007-08-05 0 0 0 1 129
2007-08-06 1 1 0 2 171
2007-08-07 1 2 0 0 211
2007-08-08 0 0 0 2 132
2007-08-09 1 3 0 2 133
2007-08-10 0 1 0 2 177
2007-08-11 0 0 0 2 104
2007-08-12 0 0 0 3 97
2007-08-13 0 3 0 3 220
2007-08-14 0 0 0 3 199
2007-08-15 0 0 0 0 163
2007-08-16 1 4 0 2 166
2007-08-17 0 6 0 5 274
2007-08-18 0 3 1 3 274
2007-08-19 1 4 0 3 258
2007-08-20 1 14 0 4 417
2007-08-21 2 9 0 3 352
2007-08-22 1 18 0 3 434
2007-08-23 1 12 0 4 412
2007-08-24 0 7 0 6 267
2007-08-25 0 7 0 5 265
2007-08-26 2 11 0 4 363
2007-08-27 1 27 0 6 720
2007-08-28 1 17 0 0 580
2007-08-29 2 9 0 0 492
2007-08-30 3 27 0 5 648
2007-08-31 1 8 0 5 311
Juillet 2007 18 127 1 4 10 165
Juin 2007 25 309 2 6 13 196
Mai 2007 30 315 8 7 11 830
2007-05-01 1 4 0 3 287
2007-05-02 1 6 0 4 196
2007-05-03 0 15 0 4 377
2007-05-04 0 6 0 3 271
2007-05-05 1 5 1 6 235
2007-05-06 0 6 1 3 344
2007-05-07 3 19 0 5 507
2007-05-08 1 14 0 6 449
2007-05-09 0 14 0 4 339
2007-05-10 1 9 1 4 472
2007-05-11 1 18 0 4 499
2007-05-12 3 8 0 5 354
2007-05-13 1 10 0 4 358
2007-05-14 4 25 0 7 643
2007-05-15 0 22 1 4 517
2007-05-16 0 14 0 3 354
2007-05-17 0 3 0 4 229
2007-05-18 0 4 0 5 356
2007-05-19 1 6 0 5 346
2007-05-20 2 14 0 5 515
2007-05-21 2 18 0 6 530
2007-05-22 0 13 1 5 424
2007-05-23 2 11 1 4 427
2007-05-24 0 7 0 3 276
2007-05-25 1 9 0 3 488
2007-05-26 0 3 0 4 251
2007-05-27 3 5 0 3 276
2007-05-28 0 4 2 4 451
2007-05-29 1 11 0 5 439
2007-05-30 0 5 0 4 316
2007-05-31 1 7 0 4 304
Avril 2007 44 428 13 9 13 382
2007-04-01 0 21 1 4 390
2007-04-02 4 25 0 6 522
2007-04-03 4 21 1 6 568
2007-04-04 3 41 1 8 1 017
2007-04-05 2 58 0 6 1 236
2007-04-06 1 29 0 6 771
2007-04-07 2 16 1 4 539
2007-04-08 0 6 0 3 243
2007-04-09 2 12 0 6 273
2007-04-10 0 6 0 6 265
2007-04-11 1 7 0 8 508
2007-04-12 1 4 1 8 599
2007-04-13 1 8 1 9 612
2007-04-14 1 2 0 4 309
2007-04-15 0 5 0 5 135
2007-04-16 0 11 0 4 467
2007-04-17 0 4 1 4 250
2007-04-18 1 8 0 7 274
2007-04-19 6 17 0 6 489
2007-04-20 1 23 1 5 463
2007-04-21 1 9 0 6 307
2007-04-22 1 11 2 4 277
2007-04-23 2 10 1 6 377
2007-04-24 1 22 0 5 524
2007-04-25 2 17 1 6 389
2007-04-26 3 12 0 6 502
2007-04-27 1 11 0 4 361
2007-04-28 2 3 0 3 172
2007-04-29 0 8 1 5 310
2007-04-30 1 1 0 5 233
Mars 2007 52 176 13 4 1 693